createdAt,value
2019-04-07T00:01:45.077Z,96608.63
2019-04-07T00:04:14.592Z,96603.87
2019-04-07T00:06:44.070Z,96605.21
2019-04-07T00:09:13.453Z,96607.89
2019-04-07T00:11:42.907Z,96605.21
2019-04-07T00:14:12.639Z,96599.41
2019-04-07T00:16:42.634Z,96605.04
2019-04-07T00:19:12.254Z,96598.88
2019-04-07T00:21:42.305Z,96595.95
2019-04-07T00:24:13.620Z,96595.45
2019-04-07T00:26:43.325Z,96591.33
2019-04-07T00:29:12.780Z,96596.38
2019-04-07T00:31:42.231Z,96602.89
2019-04-07T00:34:11.997Z,96602.80
2019-04-07T00:36:41.979Z,96597.38
2019-04-07T00:39:11.505Z,96603.30
2019-04-07T00:41:40.913Z,96603.69
2019-04-07T00:44:10.298Z,96611.30
2019-04-07T00:46:39.820Z,96605.28
2019-04-07T00:49:09.500Z,96604.23
2019-04-07T00:51:38.992Z,96602.55
2019-04-07T00:54:08.503Z,96603.82
2019-04-07T00:56:37.893Z,96606.72
2019-04-07T00:59:07.711Z,96604.37
2019-04-07T01:01:37.239Z,96600.17
2019-04-07T01:04:06.743Z,96597.31
2019-04-07T01:06:36.133Z,96594.14
2019-04-07T01:09:09.126Z,96599.81
2019-04-07T01:11:38.540Z,96596.19
2019-04-07T01:14:08.214Z,96598.83
2019-04-07T01:16:37.636Z,96594.14
2019-04-07T01:19:07.344Z,96592.13
2019-04-07T01:21:36.861Z,96601.25
2019-04-07T01:24:06.536Z,96593.28
2019-04-07T01:26:37.176Z,96586.94
2019-04-07T01:29:06.652Z,96592.17
2019-04-07T01:31:36.245Z,96589.12
2019-04-07T01:34:06.046Z,96593.98
2019-04-07T01:36:36.025Z,96594.42
2019-04-07T01:39:08.730Z,96581.73
2019-04-07T01:41:39.705Z,96585.33
2019-04-07T01:44:14.369Z,96583.84
2019-04-07T01:46:47.093Z,96571.06
2019-04-07T01:49:18.381Z,96576.21
2019-04-07T01:51:49.677Z,96575.73
2019-04-07T01:54:37.233Z,96576.17
2019-04-07T01:57:20.256Z,96567.41
2019-04-07T01:59:58.226Z,96569.95
2019-04-07T02:02:36.693Z,96569.03
2019-04-07T02:05:25.494Z,96569.89
2019-04-07T02:07:56.635Z,96567.30
2019-04-07T02:10:27.626Z,96567.89
2019-04-07T02:13:02.069Z,96568.63
2019-04-07T02:15:42.164Z,96564.58
2019-04-07T02:18:13.577Z,96569.69
2019-04-07T02:21:06.234Z,96566.91
2019-04-07T02:23:47.368Z,96561.92
2019-04-07T02:26:34.710Z,96560.65
2019-04-07T02:29:21.218Z,96564.93
2019-04-07T02:32:09.829Z,96562.31
2019-04-07T02:34:57.364Z,96563.79
2019-04-07T02:37:44.832Z,96560.44
2019-04-07T02:40:16.179Z,96551.94
2019-04-07T02:42:48.329Z,96555.55
2019-04-07T02:45:22.325Z,96551.28
2019-04-07T02:47:59.754Z,96551.59
2019-04-07T02:50:34.758Z,96550.16
2019-04-07T02:53:18.042Z,96557.28
2019-04-07T02:55:49.063Z,96553.02
2019-04-07T02:58:25.847Z,96555.30
2019-04-07T03:00:57.730Z,96555.80
2019-04-07T03:03:29.969Z,96556.66
2019-04-07T03:06:01.963Z,96559.95
2019-04-07T03:08:45.332Z,96562.84
2019-04-07T03:11:16.431Z,96565.06
2019-04-07T03:13:54.286Z,96555.64
2019-04-07T03:16:35.382Z,96557.69
2019-04-07T03:19:09.470Z,96551.03
2019-04-07T03:21:46.816Z,96554.11
2019-04-07T03:24:21.049Z,96555.30
2019-04-07T03:26:58.007Z,96552.20
2019-04-07T03:29:29.053Z,96549.25
2019-04-07T03:32:05.421Z,96543.73
2019-04-07T03:34:53.233Z,96547.70
2019-04-07T03:37:34.408Z,96548.77
2019-04-07T03:40:11.631Z,96544.84
2019-04-07T03:42:43.608Z,96548.48
2019-04-07T03:45:17.842Z,96543.64
2019-04-07T03:47:50.491Z,96545.27
2019-04-07T03:50:21.820Z,96553.75
2019-04-07T03:53:02.911Z,96547.13
2019-04-07T03:55:36.694Z,96546.84
2019-04-07T03:58:12.274Z,96548.01
2019-04-07T04:01:13.819Z,96546.87
2019-04-07T04:04:02.185Z,96542.27
2019-04-07T04:06:49.832Z,96540.92
2019-04-07T04:09:39.091Z,96543.44
2019-04-07T04:12:21.308Z,96539.09
2019-04-07T04:15:00.031Z,96535.33
2019-04-07T04:17:30.667Z,96534.56
2019-04-07T04:20:00.094Z,96529.73
2019-04-07T04:22:30.681Z,96528.92
2019-04-07T04:25:00.943Z,96529.27
2019-04-07T04:27:31.254Z,96531.48
2019-04-07T04:30:00.972Z,96527.30
2019-04-07T04:32:30.988Z,96527.38
2019-04-07T04:35:00.927Z,96521.80
2019-04-07T04:37:41.233Z,96526.55
2019-04-07T04:40:01.693Z,96531.71
2019-04-07T04:42:31.246Z,96539.19
2019-04-07T04:45:00.766Z,96541.63
2019-04-07T04:47:31.113Z,96534.67
2019-04-07T04:50:02.006Z,96534.67
2019-04-07T04:52:31.835Z,96549.13
2019-04-07T04:55:02.013Z,96546.49
2019-04-07T04:57:32.066Z,96544.49
2019-04-07T05:00:02.187Z,96551.28
2019-04-07T05:02:33.681Z,96544.55
2019-04-07T05:05:04.006Z,96555.41
2019-04-07T05:07:47.909Z,96559.97
2019-04-07T05:10:06.839Z,96560.80
2019-04-07T05:12:36.928Z,96555.66
2019-04-07T05:15:07.682Z,96552.94
2019-04-07T05:17:38.056Z,96551.75
2019-04-07T05:20:08.056Z,96558.33
2019-04-07T05:22:38.001Z,96558.83
2019-04-07T05:25:08.475Z,96557.84
2019-04-07T05:27:38.278Z,96552.65
2019-04-07T05:30:08.064Z,96559.33
2019-04-07T05:32:37.932Z,96555.02
2019-04-07T05:35:08.831Z,96554.91
2019-04-07T05:37:38.487Z,96563.24
2019-04-07T05:40:08.256Z,96566.62
2019-04-07T05:42:37.966Z,96566.62
2019-04-07T05:45:07.657Z,96563.41
2019-04-07T05:47:37.638Z,96566.59
2019-04-07T05:50:07.246Z,96563.77
2019-04-07T05:52:39.493Z,96568.61
2019-04-07T05:55:08.886Z,96568.55
2019-04-07T05:57:38.768Z,96577.92
2019-04-07T06:00:15.601Z,96569.75
2019-04-07T06:02:42.943Z,96570.20
2019-04-07T06:05:12.443Z,96579.03
2019-04-07T06:07:42.415Z,96581.07
2019-04-07T06:10:13.365Z,96572.81
2019-04-07T06:12:46.826Z,96577.75
2019-04-07T06:15:17.722Z,96585.39
2019-04-07T06:17:45.748Z,96577.23
2019-04-07T06:20:17.516Z,96585.69
2019-04-07T06:22:46.970Z,96585.66
2019-04-07T06:25:17.162Z,96598.03
2019-04-07T06:27:46.760Z,96594.62
2019-04-07T06:30:17.582Z,96591.80
2019-04-07T06:32:47.309Z,96583.59
2019-04-07T06:35:16.984Z,96583.89
2019-04-07T06:37:47.737Z,96589.53
2019-04-07T06:40:22.277Z,96594.54
2019-04-07T06:42:56.837Z,96588.04
2019-04-07T06:45:30.792Z,96588.99
2019-04-07T06:48:06.899Z,96589.25
2019-04-07T06:50:47.387Z,96588.25
2019-04-07T06:53:26.875Z,96588.61
2019-04-07T06:56:14.323Z,96584.88
2019-04-07T06:58:48.324Z,96590.78
2019-04-07T07:01:32.296Z,96595.31
2019-04-07T07:04:19.946Z,96593.47
2019-04-07T07:07:09.803Z,96591.28
2019-04-07T07:09:43.453Z,96591.56
2019-04-07T07:12:32.835Z,96586.69
2019-04-07T07:15:15.534Z,96599.08
2019-04-07T07:17:48.597Z,96600.43
2019-04-07T07:20:28.780Z,96594.91
2019-04-07T07:23:00.768Z,96590.17
2019-04-07T07:25:32.096Z,96589.34
2019-04-07T07:28:01.682Z,96597.79
2019-04-07T07:30:31.540Z,96590.16
2019-04-07T07:33:00.993Z,96595.17
2019-04-07T07:35:30.448Z,96593.44
2019-04-07T07:37:59.855Z,96585.44
2019-04-07T07:40:29.898Z,96586.92
2019-04-07T07:42:59.560Z,96585.08
2019-04-07T07:45:28.990Z,96585.50
2019-04-07T07:47:58.377Z,96587.78
2019-04-07T07:50:28.492Z,96588.98
2019-04-07T07:52:58.211Z,96591.86
2019-04-07T07:55:28.522Z,96592.16
2019-04-07T07:57:59.331Z,96594.38
2019-04-07T08:00:28.785Z,96596.10
2019-04-07T08:02:58.323Z,96594.81
2019-04-07T08:05:31.736Z,96595.58
2019-04-07T08:07:59.380Z,96596.42
2019-04-07T08:10:29.117Z,96594.80
2019-04-07T08:12:58.614Z,96593.17
2019-04-07T08:15:32.113Z,96596.53
2019-04-07T08:18:03.204Z,96587.58
2019-04-07T08:20:30.634Z,96593.86
2019-04-07T08:23:00.671Z,96586.72
2019-04-07T08:25:31.875Z,96587.93
2019-04-07T08:28:03.618Z,96590.78
2019-04-07T08:30:32.886Z,96587.94
2019-04-07T08:33:03.398Z,96599.95
2019-04-07T08:35:35.651Z,96594.15
2019-04-07T08:38:04.632Z,96593.56
2019-04-07T08:40:36.534Z,96596.35
2019-04-07T08:43:05.152Z,96585.27
2019-04-07T08:45:35.051Z,96583.27
2019-04-07T08:48:05.016Z,96592.70
2019-04-07T08:50:35.077Z,96589.91
2019-04-07T08:53:04.436Z,96590.27
2019-04-07T08:55:34.538Z,96591.18
2019-04-07T08:58:05.590Z,96589.74
2019-04-07T09:00:37.223Z,96590.91
2019-04-07T09:03:12.019Z,96600.53
2019-04-07T09:05:37.757Z,96596.27
2019-04-07T09:08:07.434Z,96590.39
2019-04-07T09:10:39.521Z,96585.83
2019-04-07T09:13:09.546Z,96589.27
2019-04-07T09:15:43.054Z,96584.53
2019-04-07T09:18:15.246Z,96581.50
2019-04-07T09:20:52.941Z,96582.59
2019-04-07T09:23:35.954Z,96585.54
2019-04-07T09:26:10.124Z,96581.82
2019-04-07T09:28:45.380Z,96579.77
2019-04-07T09:31:23.289Z,96581.58
2019-04-07T09:34:06.025Z,96569.80
2019-04-07T09:36:40.683Z,96570.32
2019-04-07T09:39:12.348Z,96568.72
2019-04-07T09:41:46.224Z,96568.54
2019-04-07T09:44:22.979Z,96573.59
2019-04-07T09:47:02.527Z,96572.26
2019-04-07T09:49:52.573Z,96568.55
2019-04-07T09:52:31.852Z,96576.88
2019-04-07T09:55:15.033Z,96572.54
2019-04-07T09:58:07.998Z,96576.82
2019-04-07T10:00:43.377Z,96578.42
2019-04-07T10:03:19.309Z,96573.69
2019-04-07T10:05:55.937Z,96568.98
2019-04-07T10:08:30.384Z,96576.80
2019-04-07T10:11:01.420Z,96578.08
2019-04-07T10:13:41.738Z,96571.27
2019-04-07T10:16:13.269Z,96575.03
2019-04-07T10:19:00.714Z,96574.41
2019-04-07T10:21:35.007Z,96570.48
2019-04-07T10:24:24.640Z,96571.70
2019-04-07T10:26:56.279Z,96561.14
2019-04-07T10:29:43.886Z,96571.59
2019-04-07T10:32:23.034Z,96567.98
2019-04-07T10:35:06.891Z,96568.94
2019-04-07T10:37:38.009Z,96567.88
2019-04-07T10:40:23.348Z,96565.70
2019-04-07T10:42:55.483Z,96574.55
2019-04-07T10:45:27.160Z,96563.59
2019-04-07T10:48:07.996Z,96562.02
2019-04-07T10:50:48.068Z,96565.25
2019-04-07T10:53:22.739Z,96564.56
2019-04-07T10:55:54.228Z,96564.66
2019-04-07T10:58:34.881Z,96562.70
2019-04-07T11:04:07.653Z,96558.88
2019-04-07T11:06:41.655Z,96553.53
2019-04-07T11:09:28.378Z,96550.58
2019-04-07T11:12:00.056Z,96548.23
2019-04-07T11:14:31.227Z,96547.70
2019-04-07T11:17:08.122Z,96542.06
2019-04-07T11:19:39.793Z,96540.25
2019-04-07T11:22:26.605Z,96543.78
2019-04-07T11:25:09.723Z,96540.23
2019-04-07T11:27:52.883Z,96531.59
2019-04-07T11:30:24.512Z,96537.01
2019-04-07T11:33:11.803Z,96535.89
2019-04-07T11:35:43.305Z,96536.01
2019-04-07T11:38:31.055Z,96527.53
2019-04-07T11:41:02.543Z,96539.35
2019-04-07T11:43:46.914Z,96529.11
2019-04-07T11:46:18.759Z,96530.83
2019-04-07T11:48:50.410Z,96540.44
2019-04-07T11:51:33.565Z,96528.55
2019-04-07T11:54:19.774Z,96527.05
2019-04-07T11:56:57.332Z,96519.10
2019-04-07T12:50:17.386Z,96494.48
2019-04-07T12:53:02.167Z,96494.79
2019-04-07T12:55:55.971Z,96493.23
2019-04-07T12:58:25.491Z,96492.80
2019-04-07T13:01:00.746Z,96485.47
2019-04-07T13:03:35.246Z,96492.14
2019-04-07T13:06:12.131Z,96484.15
2019-04-07T13:08:58.160Z,96495.37
2019-04-07T13:11:45.684Z,96496.67
2019-04-07T13:14:32.398Z,96491.48
2019-04-07T13:17:12.670Z,96492.19
2019-04-07T13:19:53.429Z,96498.52
2019-04-07T13:22:34.475Z,96492.23
2019-04-07T13:25:11.872Z,96490.72
2019-04-07T13:27:48.416Z,96486.04
2019-04-07T13:30:27.120Z,96481.76
2019-04-07T13:33:08.097Z,96474.84
2019-04-07T13:35:51.847Z,96475.58
2019-04-07T13:38:38.942Z,96482.44
2019-04-07T13:41:21.615Z,96477.02
2019-04-07T13:44:08.857Z,96472.34
2019-04-07T13:46:59.076Z,96482.45
2019-04-07T13:49:45.941Z,96489.08
2019-04-07T13:52:23.081Z,96488.58
2019-04-07T13:55:09.328Z,96487.00
2019-04-07T13:57:43.191Z,96488.51
2019-04-07T14:00:30.633Z,96490.56
2019-04-07T14:03:07.842Z,96492.12
2019-04-07T14:05:40.385Z,96485.03
2019-04-07T14:08:17.591Z,96500.16
2019-04-07T14:10:49.279Z,96497.75
2019-04-07T14:13:21.016Z,96494.64
2019-04-07T14:15:58.608Z,96499.31
2019-04-07T14:18:43.778Z,96496.19
2019-04-07T14:21:26.441Z,96502.14
2019-04-07T14:24:13.392Z,96502.41
2019-04-07T14:26:54.247Z,96507.38
2019-04-07T14:29:43.063Z,96499.50
2019-04-07T14:32:19.701Z,96505.75
2019-04-07T14:35:02.452Z,96506.09
2019-04-07T14:37:34.090Z,96502.75
2019-04-07T14:40:21.391Z,96507.56
2019-04-07T14:42:55.517Z,96500.75
2019-04-07T14:45:30.032Z,96506.34
2019-04-07T14:48:13.469Z,96510.48
2019-04-07T14:50:57.112Z,96511.17
2019-04-07T14:53:40.876Z,96507.77
2019-04-07T14:56:12.145Z,96514.63
2019-04-07T14:58:45.401Z,96516.90
2019-04-07T15:01:16.025Z,96513.97
2019-04-07T15:03:45.845Z,96508.81
2019-04-07T15:06:16.537Z,96514.52
2019-04-07T15:08:56.515Z,96507.63
2019-04-07T15:11:42.369Z,96507.27
2019-04-07T15:14:12.781Z,96512.75
2019-04-07T15:16:43.823Z,96519.43
2019-04-07T15:19:13.736Z,96520.88
2019-04-07T15:21:43.336Z,96524.01
2019-04-07T15:24:14.601Z,96523.36
2019-04-07T15:26:46.959Z,96528.20
2019-04-07T15:29:15.792Z,96531.84
2019-04-07T15:31:49.055Z,96520.97
2019-04-07T15:34:16.409Z,96528.84
2019-04-07T15:36:48.008Z,96521.21
2019-04-07T15:39:17.024Z,96527.28
2019-04-07T15:41:47.795Z,96523.95
2019-04-07T15:44:17.247Z,96525.92
2019-04-07T15:46:51.574Z,96526.52
2019-04-07T15:49:18.439Z,96534.69
2019-04-07T15:51:48.702Z,96534.88
2019-04-07T15:54:21.498Z,96536.77
2019-04-07T15:56:50.150Z,96532.82
2019-04-07T15:59:20.628Z,96530.30
2019-04-07T16:01:49.962Z,96534.69
2019-04-07T16:04:25.840Z,96536.97
2019-04-07T16:06:52.577Z,96533.86
2019-04-07T16:09:33.418Z,96536.14
2019-04-07T16:11:53.333Z,96544.19
2019-04-07T16:14:23.091Z,96545.05
2019-04-07T16:16:53.642Z,96550.84
2019-04-07T16:19:36.497Z,96546.70
2019-04-07T16:21:55.136Z,96547.74
2019-04-07T16:24:24.572Z,96558.36
2019-04-07T16:26:54.699Z,96556.37
2019-04-07T16:29:24.075Z,96559.42
2019-04-07T16:31:55.746Z,96557.16
2019-04-07T16:34:24.560Z,96560.77
2019-04-07T16:36:57.237Z,96559.50
2019-04-07T16:39:25.017Z,96556.80
2019-04-07T16:41:54.392Z,96555.34
2019-04-07T16:44:24.492Z,96556.36
2019-04-07T16:46:56.470Z,96552.30
2019-04-07T16:49:25.739Z,96552.84
2019-04-07T16:51:58.278Z,96547.64
2019-04-07T16:54:26.610Z,96543.31
2019-04-07T16:56:58.306Z,96546.77
2019-04-07T16:59:27.551Z,96541.23
2019-04-07T17:01:57.995Z,96538.72
2019-04-07T17:04:27.561Z,96541.34
2019-04-07T17:07:03.273Z,96542.83
2019-04-07T17:09:29.109Z,96546.36
2019-04-07T17:11:58.821Z,96535.20
2019-04-07T17:14:32.102Z,96529.24
2019-04-07T17:17:00.180Z,96524.76
2019-04-07T17:19:30.114Z,96534.71
2019-04-07T17:22:01.827Z,96533.42
2019-04-07T17:24:31.280Z,96524.27
2019-04-07T17:27:02.937Z,96532.02
2019-04-07T17:29:32.352Z,96531.38
2019-04-07T17:32:02.833Z,96532.59
2019-04-07T17:34:33.637Z,96535.36
2019-04-07T17:37:03.999Z,96533.01
2019-04-07T17:39:42.461Z,96532.98
2019-04-07T17:42:12.629Z,96531.42
2019-04-07T17:44:59.929Z,96530.07
2019-04-07T17:47:43.331Z,96534.73
2019-04-07T17:50:17.918Z,96547.89
2019-04-07T17:52:48.949Z,96544.42
2019-04-07T17:55:32.065Z,96541.83
2019-04-07T17:58:19.067Z,96541.09
2019-04-07T18:01:04.865Z,96539.53
2019-04-07T18:03:44.169Z,96540.08
2019-04-07T18:06:32.098Z,96546.67
2019-04-07T18:09:22.259Z,96547.47
2019-04-07T18:12:12.795Z,96558.08
2019-04-07T18:14:44.690Z,96561.70
2019-04-07T18:17:22.618Z,96560.73
2019-04-07T18:19:53.744Z,96565.33
2019-04-07T18:22:42.263Z,96565.14
2019-04-07T18:25:16.300Z,96570.31
2019-04-07T18:27:48.403Z,96576.34
2019-04-07T18:30:22.445Z,96570.48
2019-04-07T18:33:15.562Z,96568.75
2019-04-07T18:35:45.239Z,96572.37
2019-04-07T18:38:16.262Z,96566.77
2019-04-07T18:40:47.290Z,96565.87
2019-04-07T18:43:24.540Z,96565.69
2019-04-07T18:45:55.856Z,96564.95
2019-04-07T18:48:28.826Z,96571.27
2019-04-07T18:51:17.767Z,96574.45
2019-04-07T18:53:52.008Z,96571.27
2019-04-07T18:56:23.047Z,96573.69
2019-04-07T18:58:54.639Z,96578.66
2019-04-07T19:01:34.213Z,96576.75
2019-04-07T19:04:08.260Z,96574.13
2019-04-07T19:06:57.778Z,96575.95
2019-04-07T19:09:33.134Z,96565.95
2019-04-07T19:12:20.470Z,96569.09
2019-04-07T19:15:00.828Z,96565.98
2019-04-07T19:17:25.507Z,96566.81
2019-04-07T19:19:59.532Z,96566.38
2019-04-07T19:22:37.015Z,96574.59
2019-04-07T19:25:11.613Z,96577.17
2019-04-07T19:28:02.374Z,96576.65
2019-04-07T19:30:31.011Z,96580.02
2019-04-07T19:33:02.482Z,96576.64
2019-04-07T19:35:51.937Z,96576.41
2019-04-07T19:38:29.226Z,96571.43
2019-04-07T19:41:00.452Z,96575.89
2019-04-07T19:43:34.918Z,96575.45
2019-04-07T19:46:07.597Z,96581.66
2019-04-07T19:48:55.520Z,96581.90
2019-04-07T19:51:45.833Z,96586.78
2019-04-07T19:54:19.535Z,96589.31
2019-04-07T19:57:02.992Z,96587.50
2019-04-07T19:59:50.657Z,96588.16
2019-04-07T20:02:39.102Z,96589.94
2019-04-07T20:05:19.090Z,96598.63
2019-04-07T20:07:51.258Z,96590.48
2019-04-07T20:10:38.186Z,96597.98
2019-04-07T20:13:44.570Z,96598.96
2019-04-07T20:16:20.388Z,96596.74
2019-04-07T20:18:51.671Z,96597.42
2019-04-07T20:21:41.191Z,96594.42
2019-04-07T20:24:11.495Z,96594.82
2019-04-07T20:26:53.142Z,96594.05
2019-04-07T20:29:43.787Z,96601.23
2019-04-07T20:32:15.122Z,96601.91
2019-04-07T20:34:54.934Z,96599.19
2019-04-07T20:37:41.189Z,96604.87
2019-04-07T20:40:12.402Z,96605.00
2019-04-07T20:42:46.354Z,96607.28
2019-04-07T20:45:23.181Z,96613.02
2019-04-07T20:48:01.613Z,96612.68
2019-04-07T20:50:48.663Z,96610.95
2019-04-07T20:53:38.534Z,96620.98
2019-04-07T20:56:25.986Z,96608.84
2019-04-07T20:59:09.845Z,96612.17
2019-04-07T21:01:43.875Z,96618.79
2019-04-07T21:04:17.978Z,96616.20
2019-04-07T21:06:59.752Z,96619.14
2019-04-07T21:09:42.722Z,96621.98
2019-04-07T21:12:17.350Z,96614.91
2019-04-07T21:14:55.078Z,96617.67
2019-04-07T21:17:37.873Z,96615.27
2019-04-07T21:20:15.024Z,96617.97
2019-04-07T21:22:46.533Z,96620.31
2019-04-07T21:25:21.591Z,96623.73
2019-04-07T21:27:52.813Z,96619.42
2019-04-07T21:30:38.830Z,96623.95
2019-04-07T21:33:26.960Z,96618.91
2019-04-07T21:36:06.422Z,96611.36
2019-04-07T21:38:55.094Z,96613.72
2019-04-07T21:41:25.318Z,96612.54
2019-04-07T21:43:57.337Z,96619.27
2019-04-07T21:46:29.136Z,96623.68
2019-04-07T21:49:06.080Z,96616.35
2019-04-07T21:51:39.912Z,96615.95
2019-04-07T21:54:19.632Z,96618.03
2019-04-07T21:57:00.235Z,96618.77
2019-04-07T21:59:49.953Z,96622.16
2019-04-07T22:02:23.958Z,96617.79
2019-04-07T22:05:04.230Z,96618.13
2019-04-07T22:07:41.749Z,96617.13
2019-04-07T22:10:13.682Z,96617.09
2019-04-07T22:12:43.081Z,96621.12
2019-04-07T22:15:14.180Z,96620.53
2019-04-07T22:17:44.107Z,96615.61
2019-04-07T22:20:17.774Z,96620.98
2019-04-07T22:22:45.300Z,96618.26
2019-04-07T22:25:18.536Z,96627.34
2019-04-07T22:27:48.411Z,96624.39
2019-04-07T22:30:18.573Z,96621.63
2019-04-07T22:32:50.953Z,96623.48
2019-04-07T22:35:19.377Z,96623.08
2019-04-07T22:37:50.251Z,96621.03
2019-04-07T22:40:21.292Z,96620.62
2019-04-07T22:42:50.775Z,96621.16
2019-04-07T22:45:25.109Z,96621.43
2019-04-07T22:47:52.875Z,96621.95
2019-04-07T22:50:23.420Z,96622.67
2019-04-07T22:52:53.352Z,96624.20
2019-04-07T22:55:23.709Z,96621.03
2019-04-07T22:57:54.170Z,96618.38
2019-04-07T23:00:25.331Z,96611.95
2019-04-07T23:02:55.335Z,96613.59
2019-04-07T23:05:25.629Z,96610.11
2019-04-07T23:07:55.077Z,96606.38
2019-04-07T23:10:25.166Z,96601.63
2019-04-07T23:12:55.232Z,96604.47
2019-04-07T23:15:37.248Z,96597.80
2019-04-07T23:17:57.627Z,96606.06
2019-04-07T23:20:28.992Z,96606.06
2019-04-07T23:22:58.473Z,96604.08
2019-04-07T23:25:28.104Z,96606.39
2019-04-07T23:27:58.455Z,96609.32
2019-04-07T23:30:29.787Z,96609.92
2019-04-07T23:32:59.187Z,96609.36
2019-04-07T23:35:28.843Z,96614.50
2019-04-07T23:37:58.244Z,96616.96
2019-04-07T23:40:28.092Z,96604.91
2019-04-07T23:42:57.501Z,96605.93
2019-04-07T23:45:27.390Z,96613.50
2019-04-07T23:47:56.883Z,96598.20
2019-04-07T23:50:27.240Z,96598.20
2019-04-07T23:52:58.197Z,96605.59
2019-04-07T23:55:27.603Z,96601.08
2019-04-07T23:57:56.978Z,96602.41
